Claymont, Delaware
Current Conditions -  °F | °C
As of 7:51 PM on Saturday 25 Oct 2014 (Local Time) from KILG Reporting Station
Clear Clear  
Wind Chill: 60°   Ceiling: Unl
Heat Index: 60°   Visibility: 10mi
Dew Point: 45°   Wind: 7mph
Humidity: 57%   Direction: 210°SSW
Pressure: 29.71"   Gusts: NA
Location:  39.8°N, 75.46°W
Report Text: KILG 252351Z 21006KT 10SM CLR 16/07 A2971 RMK AO2 SLP059 T01560072 10211 20156 55011
Loading
Personal Weather Stations






























Interactive Weather Map New forecast layout! Learn more

10-Day Weather Forecast

Advertisements
Track Severe Weather on mobile